sensor_id;sensor_type;location;lat;lon;timestamp;P1;durP1;ratioP1;P2;durP2;ratioP2
1831;SDS011;1680;48.106;11.708;2023-03-14T00:01:26;1.20;;;1.10;;
1831;SDS011;1680;48.106;11.708;2023-03-14T00:03:53;3.30;;;1.30;;
1831;SDS011;1680;48.106;11.708;2023-03-14T00:06:21;1.47;;;1.30;;
1831;SDS011;1680;48.106;11.708;2023-03-14T00:08:49;1.60;;;1.50;;
1831;SDS011;1680;48.106;11.708;2023-03-14T00:11:17;2.23;;;1.70;;
1831;SDS011;1680;48.106;11.708;2023-03-14T00:13:46;2.60;;;1.40;;
1831;SDS011;1680;48.106;11.708;2023-03-14T00:16:14;2.13;;;1.50;;
1831;SDS011;1680;48.106;11.708;2023-03-14T00:18:43;1.63;;;1.40;;
1831;SDS011;1680;48.106;11.708;2023-03-14T00:21:10;1.87;;;1.30;;
1831;SDS011;1680;48.106;11.708;2023-03-14T00:23:40;2.23;;;1.87;;
1831;SDS011;1680;48.106;11.708;2023-03-14T00:26:09;2.50;;;2.00;;
1831;SDS011;1680;48.106;11.708;2023-03-14T00:28:38;3.17;;;1.80;;
1831;SDS011;1680;48.106;11.708;2023-03-14T00:31:06;2.80;;;1.93;;
1831;SDS011;1680;48.106;11.708;2023-03-14T00:33:34;1.90;;;1.70;;
1831;SDS011;1680;48.106;11.708;2023-03-14T00:36:04;1.77;;;1.67;;
1831;SDS011;1680;48.106;11.708;2023-03-14T00:38:34;2.00;;;1.80;;
1831;SDS011;1680;48.106;11.708;2023-03-14T00:41:02;3.03;;;2.03;;
1831;SDS011;1680;48.106;11.708;2023-03-14T00:43:30;3.57;;;2.27;;
1831;SDS011;1680;48.106;11.708;2023-03-14T00:45:57;3.03;;;1.60;;
1831;SDS011;1680;48.106;11.708;2023-03-14T00:48:24;1.60;;;1.50;;
1831;SDS011;1680;48.106;11.708;2023-03-14T00:50:52;1.90;;;1.37;;
1831;SDS011;1680;48.106;11.708;2023-03-14T00:53:20;2.73;;;1.23;;
1831;SDS011;1680;48.106;11.708;2023-03-14T00:55:48;1.30;;;1.00;;
1831;SDS011;1680;48.106;11.708;2023-03-14T00:58:17;1.10;;;1.03;;
1831;SDS011;1680;48.106;11.708;2023-03-14T01:00:45;1.53;;;1.03;;
1831;SDS011;1680;48.106;11.708;2023-03-14T01:03:13;1.13;;;1.03;;
1831;SDS011;1680;48.106;11.708;2023-03-14T01:05:41;1.43;;;1.00;;
1831;SDS011;1680;48.106;11.708;2023-03-14T01:08:08;0.80;;;0.80;;
1831;SDS011;1680;48.106;11.708;2023-03-14T01:10:38;0.70;;;0.70;;
1831;SDS011;1680;48.106;11.708;2023-03-14T01:13:06;0.70;;;0.70;;
1831;SDS011;1680;48.106;11.708;2023-03-14T01:15:34;0.90;;;0.90;;
1831;SDS011;1680;48.106;11.708;2023-03-14T01:18:01;0.80;;;0.70;;
1831;SDS011;1680;48.106;11.708;2023-03-14T01:20:30;0.60;;;0.60;;
1831;SDS011;1680;48.106;11.708;2023-03-14T01:22:57;0.73;;;0.60;;
1831;SDS011;1680;48.106;11.708;2023-03-14T01:25:24;1.17;;;0.70;;
1831;SDS011;1680;48.106;11.708;2023-03-14T01:27:53;1.13;;;0.70;;
1831;SDS011;1680;48.106;11.708;2023-03-14T01:30:20;0.70;;;0.70;;
1831;SDS011;1680;48.106;11.708;2023-03-14T01:32:48;0.80;;;0.80;;
1831;SDS011;1680;48.106;11.708;2023-03-14T01:35:15;0.90;;;0.63;;
1831;SDS011;1680;48.106;11.708;2023-03-14T01:37:42;0.60;;;0.60;;
1831;SDS011;1680;48.106;11.708;2023-03-14T01:40:10;1.63;;;0.70;;
1831;SDS011;1680;48.106;11.708;2023-03-14T01:42:44;0.70;;;0.70;;
1831;SDS011;1680;48.106;11.708;2023-03-14T01:48:19;2.07;;;0.90;;
1831;SDS011;1680;48.106;11.708;2023-03-14T01:50:47;2.20;;;0.60;;
1831;SDS011;1680;48.106;11.708;2023-03-14T01:53:14;0.97;;;0.87;;
1831;SDS011;1680;48.106;11.708;2023-03-14T01:55:46;0.70;;;0.63;;
1831;SDS011;1680;48.106;11.708;2023-03-14T01:58:14;0.80;;;0.60;;
1831;SDS011;1680;48.106;11.708;2023-03-14T02:00:45;0.50;;;0.50;;
1831;SDS011;1680;48.106;11.708;2023-03-14T02:03:14;1.33;;;0.60;;
1831;SDS011;1680;48.106;11.708;2023-03-14T02:05:45;0.83;;;0.60;;
1831;SDS011;1680;48.106;11.708;2023-03-14T02:08:13;0.70;;;0.60;;
1831;SDS011;1680;48.106;11.708;2023-03-14T02:10:42;1.67;;;0.70;;
1831;SDS011;1680;48.106;11.708;2023-03-14T02:13:12;0.63;;;0.63;;
1831;SDS011;1680;48.106;11.708;2023-03-14T02:15:41;1.00;;;0.80;;
1831;SDS011;1680;48.106;11.708;2023-03-14T02:18:09;1.33;;;0.80;;
1831;SDS011;1680;48.106;11.708;2023-03-14T02:20:38;1.23;;;0.60;;
1831;SDS011;1680;48.106;11.708;2023-03-14T02:23:13;0.80;;;0.60;;
1831;SDS011;1680;48.106;11.708;2023-03-14T02:25:46;0.93;;;0.60;;
1831;SDS011;1680;48.106;11.708;2023-03-14T02:28:20;1.93;;;0.90;;
1831;SDS011;1680;48.106;11.708;2023-03-14T02:30:47;1.17;;;0.70;;
1831;SDS011;1680;48.106;11.708;2023-03-14T02:33:15;1.73;;;0.73;;
1831;SDS011;1680;48.106;11.708;2023-03-14T02:35:45;0.70;;;0.70;;
1831;SDS011;1680;48.106;11.708;2023-03-14T02:38:17;1.40;;;0.90;;
1831;SDS011;1680;48.106;11.708;2023-03-14T02:40:49;1.47;;;0.70;;
1831;SDS011;1680;48.106;11.708;2023-03-14T02:43:16;0.50;;;0.50;;
1831;SDS011;1680;48.106;11.708;2023-03-14T02:45:45;0.80;;;0.57;;
1831;SDS011;1680;48.106;11.708;2023-03-14T02:48:15;0.80;;;0.70;;
1831;SDS011;1680;48.106;11.708;2023-03-14T02:50:45;0.60;;;0.60;;
1831;SDS011;1680;48.106;11.708;2023-03-14T02:53:16;1.30;;;0.60;;
1831;SDS011;1680;48.106;11.708;2023-03-14T02:55:45;0.47;;;0.47;;
1831;SDS011;1680;48.106;11.708;2023-03-14T02:58:13;0.60;;;0.60;;
1831;SDS011;1680;48.106;11.708;2023-03-14T03:00:41;0.70;;;0.70;;
1831;SDS011;1680;48.106;11.708;2023-03-14T03:03:10;0.53;;;0.53;;
1831;SDS011;1680;48.106;11.708;2023-03-14T03:05:37;0.80;;;0.60;;
1831;SDS011;1680;48.106;11.708;2023-03-14T03:08:04;0.50;;;0.50;;
1831;SDS011;1680;48.106;11.708;2023-03-14T03:10:32;1.10;;;0.60;;
1831;SDS011;1680;48.106;11.708;2023-03-14T03:12:59;2.00;;;0.63;;
1831;SDS011;1680;48.106;11.708;2023-03-14T03:15:26;0.90;;;0.53;;
1831;SDS011;1680;48.106;11.708;2023-03-14T03:17:54;0.73;;;0.73;;
1831;SDS011;1680;48.106;11.708;2023-03-14T03:20:22;0.50;;;0.50;;
1831;SDS011;1680;48.106;11.708;2023-03-14T03:22:50;0.57;;;0.57;;
1831;SDS011;1680;48.106;11.708;2023-03-14T03:25:17;0.57;;;0.50;;
1831;SDS011;1680;48.106;11.708;2023-03-14T03:27:44;0.53;;;0.53;;
1831;SDS011;1680;48.106;11.708;2023-03-14T03:30:12;0.50;;;0.50;;
1831;SDS011;1680;48.106;11.708;2023-03-14T03:32:40;0.87;;;0.50;;
1831;SDS011;1680;48.106;11.708;2023-03-14T03:35:08;0.60;;;0.50;;
1831;SDS011;1680;48.106;11.708;2023-03-14T03:37:37;0.50;;;0.50;;
1831;SDS011;1680;48.106;11.708;2023-03-14T03:40:05;0.57;;;0.57;;
1831;SDS011;1680;48.106;11.708;2023-03-14T03:42:34;0.53;;;0.53;;
1831;SDS011;1680;48.106;11.708;2023-03-14T03:45:02;0.50;;;0.50;;
1831;SDS011;1680;48.106;11.708;2023-03-14T03:47:30;1.07;;;0.60;;
1831;SDS011;1680;48.106;11.708;2023-03-14T03:49:58;1.03;;;0.50;;
1831;SDS011;1680;48.106;11.708;2023-03-14T03:52:25;0.40;;;0.40;;
1831;SDS011;1680;48.106;11.708;2023-03-14T03:54:53;1.50;;;0.57;;
1831;SDS011;1680;48.106;11.708;2023-03-14T03:57:21;0.70;;;0.50;;
1831;SDS011;1680;48.106;11.708;2023-03-14T03:59:48;0.50;;;0.50;;
1831;SDS011;1680;48.106;11.708;2023-03-14T04:02:15;0.57;;;0.50;;
1831;SDS011;1680;48.106;11.708;2023-03-14T04:04:42;0.60;;;0.50;;
1831;SDS011;1680;48.106;11.708;2023-03-14T04:07:10;0.50;;;0.50;;
1831;SDS011;1680;48.106;11.708;2023-03-14T04:09:39;0.47;;;0.47;;
1831;SDS011;1680;48.106;11.708;2023-03-14T04:12:07;0.50;;;0.50;;
1831;SDS011;1680;48.106;11.708;2023-03-14T04:14:36;1.13;;;0.60;;
1831;SDS011;1680;48.106;11.708;2023-03-14T04:17:03;0.43;;;0.40;;
1831;SDS011;1680;48.106;11.708;2023-03-14T04:19:30;0.50;;;0.50;;
1831;SDS011;1680;48.106;11.708;2023-03-14T04:21:58;2.30;;;0.47;;
1831;SDS011;1680;48.106;11.708;2023-03-14T04:24:25;0.40;;;0.40;;
1831;SDS011;1680;48.106;11.708;2023-03-14T04:26:52;0.40;;;0.40;;
1831;SDS011;1680;48.106;11.708;2023-03-14T04:29:21;0.60;;;0.50;;
1831;SDS011;1680;48.106;11.708;2023-03-14T04:31:48;0.50;;;0.50;;
1831;SDS011;1680;48.106;11.708;2023-03-14T04:34:15;0.40;;;0.40;;
1831;SDS011;1680;48.106;11.708;2023-03-14T04:36:42;0.50;;;0.50;;
1831;SDS011;1680;48.106;11.708;2023-03-14T04:39:10;0.40;;;0.40;;
1831;SDS011;1680;48.106;11.708;2023-03-14T04:41:37;0.93;;;0.50;;
1831;SDS011;1680;48.106;11.708;2023-03-14T04:44:04;0.50;;;0.50;;
1831;SDS011;1680;48.106;11.708;2023-03-14T04:46:33;0.40;;;0.40;;
1831;SDS011;1680;48.106;11.708;2023-03-14T04:49:00;0.67;;;0.40;;
1831;SDS011;1680;48.106;11.708;2023-03-14T04:51:27;0.50;;;0.50;;
1831;SDS011;1680;48.106;11.708;2023-03-14T04:53:54;0.43;;;0.40;;
1831;SDS011;1680;48.106;11.708;2023-03-14T04:56:21;0.67;;;0.50;;
1831;SDS011;1680;48.106;11.708;2023-03-14T04:58:49;0.70;;;0.50;;
1831;SDS011;1680;48.106;11.708;2023-03-14T05:01:16;0.40;;;0.40;;
1831;SDS011;1680;48.106;11.708;2023-03-14T05:03:45;0.50;;;0.50;;
1831;SDS011;1680;48.106;11.708;2023-03-14T05:06:12;0.70;;;0.50;;
1831;SDS011;1680;48.106;11.708;2023-03-14T05:08:39;0.50;;;0.50;;
1831;SDS011;1680;48.106;11.708;2023-03-14T05:11:09;0.50;;;0.50;;
1831;SDS011;1680;48.106;11.708;2023-03-14T05:13:37;0.40;;;0.40;;
1831;SDS011;1680;48.106;11.708;2023-03-14T05:16:05;0.40;;;0.40;;
1831;SDS011;1680;48.106;11.708;2023-03-14T05:18:33;0.50;;;0.40;;
1831;SDS011;1680;48.106;11.708;2023-03-14T05:21:03;0.40;;;0.40;;
1831;SDS011;1680;48.106;11.708;2023-03-14T05:23:31;0.40;;;0.40;;
1831;SDS011;1680;48.106;11.708;2023-03-14T05:25:58;0.40;;;0.40;;
1831;SDS011;1680;48.106;11.708;2023-03-14T05:28:25;0.50;;;0.40;;
1831;SDS011;1680;48.106;11.708;2023-03-14T05:30:53;0.50;;;0.50;;
1831;SDS011;1680;48.106;11.708;2023-03-14T05:33:20;0.57;;;0.50;;
1831;SDS011;1680;48.106;11.708;2023-03-14T05:35:47;0.57;;;0.43;;
1831;SDS011;1680;48.106;11.708;2023-03-14T05:38:16;0.50;;;0.50;;
1831;SDS011;1680;48.106;11.708;2023-03-14T05:40:44;0.50;;;0.50;;
1831;SDS011;1680;48.106;11.708;2023-03-14T05:43:12;0.50;;;0.50;;
1831;SDS011;1680;48.106;11.708;2023-03-14T05:45:40;0.50;;;0.50;;
1831;SDS011;1680;48.106;11.708;2023-03-14T05:48:07;0.50;;;0.50;;
1831;SDS011;1680;48.106;11.708;2023-03-14T05:50:35;0.50;;;0.50;;
1831;SDS011;1680;48.106;11.708;2023-03-14T05:53:02;0.50;;;0.50;;
1831;SDS011;1680;48.106;11.708;2023-03-14T05:55:31;0.50;;;0.50;;
1831;SDS011;1680;48.106;11.708;2023-03-14T05:57:58;0.40;;;0.40;;
1831;SDS011;1680;48.106;11.708;2023-03-14T06:00:25;0.40;;;0.40;;
1831;SDS011;1680;48.106;11.708;2023-03-14T06:02:53;0.50;;;0.50;;
1831;SDS011;1680;48.106;11.708;2023-03-14T06:05:20;0.40;;;0.40;;
1831;SDS011;1680;48.106;11.708;2023-03-14T06:07:47;0.40;;;0.40;;
1831;SDS011;1680;48.106;11.708;2023-03-14T06:10:15;0.50;;;0.50;;
1831;SDS011;1680;48.106;11.708;2023-03-14T06:12:43;0.60;;;0.50;;
1831;SDS011;1680;48.106;11.708;2023-03-14T06:15:10;0.80;;;0.50;;
1831;SDS011;1680;48.106;11.708;2023-03-14T06:17:38;0.40;;;0.40;;
1831;SDS011;1680;48.106;11.708;2023-03-14T06:20:05;1.03;;;0.60;;
1831;SDS011;1680;48.106;11.708;2023-03-14T06:22:33;1.00;;;0.50;;
1831;SDS011;1680;48.106;11.708;2023-03-14T06:25:01;0.60;;;0.50;;
1831;SDS011;1680;48.106;11.708;2023-03-14T06:27:28;1.47;;;0.50;;
1831;SDS011;1680;48.106;11.708;2023-03-14T06:29:57;3.70;;;0.60;;
1831;SDS011;1680;48.106;11.708;2023-03-14T06:32:25;1.13;;;0.63;;
1831;SDS011;1680;48.106;11.708;2023-03-14T06:34:52;1.37;;;0.77;;
1831;SDS011;1680;48.106;11.708;2023-03-14T06:37:19;1.30;;;1.30;;
1831;SDS011;1680;48.106;11.708;2023-03-14T06:39:46;1.40;;;1.00;;
1831;SDS011;1680;48.106;11.708;2023-03-14T06:42:14;1.50;;;1.40;;
1831;SDS011;1680;48.106;11.708;2023-03-14T06:44:41;1.10;;;1.00;;
1831;SDS011;1680;48.106;11.708;2023-03-14T06:47:09;0.90;;;0.90;;
1831;SDS011;1680;48.106;11.708;2023-03-14T06:49:37;0.70;;;0.70;;
1831;SDS011;1680;48.106;11.708;2023-03-14T06:52:04;0.70;;;0.70;;
1831;SDS011;1680;48.106;11.708;2023-03-14T06:54:31;1.07;;;0.50;;
1831;SDS011;1680;48.106;11.708;2023-03-14T06:56:58;0.60;;;0.60;;
1831;SDS011;1680;48.106;11.708;2023-03-14T06:59:25;1.40;;;1.30;;
1831;SDS011;1680;48.106;11.708;2023-03-14T07:01:53;0.70;;;0.70;;
1831;SDS011;1680;48.106;11.708;2023-03-14T07:04:21;1.43;;;0.87;;
1831;SDS011;1680;48.106;11.708;2023-03-14T07:06:48;0.90;;;0.70;;
1831;SDS011;1680;48.106;11.708;2023-03-14T07:09:15;0.60;;;0.60;;
1831;SDS011;1680;48.106;11.708;2023-03-14T07:11:43;0.50;;;0.50;;
1831;SDS011;1680;48.106;11.708;2023-03-14T07:14:10;0.77;;;0.60;;
1831;SDS011;1680;48.106;11.708;2023-03-14T07:16:37;0.70;;;0.60;;
1831;SDS011;1680;48.106;11.708;2023-03-14T07:19:04;0.97;;;0.60;;
1831;SDS011;1680;48.106;11.708;2023-03-14T07:21:33;0.70;;;0.70;;
1831;SDS011;1680;48.106;11.708;2023-03-14T07:24:00;8.17;;;0.97;;
1831;SDS011;1680;48.106;11.708;2023-03-14T07:26:28;0.60;;;0.60;;
1831;SDS011;1680;48.106;11.708;2023-03-14T07:28:55;0.60;;;0.60;;
1831;SDS011;1680;48.106;11.708;2023-03-14T07:31:22;1.73;;;1.10;;
1831;SDS011;1680;48.106;11.708;2023-03-14T07:33:49;0.70;;;0.70;;
1831;SDS011;1680;48.106;11.708;2023-03-14T07:36:17;1.47;;;1.07;;
1831;SDS011;1680;48.106;11.708;2023-03-14T07:38:45;1.30;;;1.20;;
1831;SDS011;1680;48.106;11.708;2023-03-14T07:41:12;1.27;;;1.17;;
1831;SDS011;1680;48.106;11.708;2023-03-14T07:43:40;1.20;;;1.10;;
1831;SDS011;1680;48.106;11.708;2023-03-14T07:46:07;1.70;;;1.10;;
1831;SDS011;1680;48.106;11.708;2023-03-14T07:48:34;1.07;;;0.97;;
1831;SDS011;1680;48.106;11.708;2023-03-14T07:51:02;1.77;;;1.30;;
1831;SDS011;1680;48.106;11.708;2023-03-14T07:53:29;1.17;;;1.07;;
1831;SDS011;1680;48.106;11.708;2023-03-14T07:55:57;1.20;;;0.97;;
1831;SDS011;1680;48.106;11.708;2023-03-14T07:58:25;0.87;;;0.83;;
1831;SDS011;1680;48.106;11.708;2023-03-14T08:00:52;0.90;;;0.80;;
1831;SDS011;1680;48.106;11.708;2023-03-14T08:03:19;1.00;;;0.90;;
1831;SDS011;1680;48.106;11.708;2023-03-14T08:05:47;1.00;;;0.90;;
1831;SDS011;1680;48.106;11.708;2023-03-14T08:08:15;2.43;;;1.47;;
1831;SDS011;1680;48.106;11.708;2023-03-14T08:10:42;3.07;;;1.13;;
1831;SDS011;1680;48.106;11.708;2023-03-14T08:13:12;1.67;;;1.10;;
1831;SDS011;1680;48.106;11.708;2023-03-14T08:15:39;1.23;;;1.13;;
1831;SDS011;1680;48.106;11.708;2023-03-14T08:18:07;0.87;;;0.70;;
1831;SDS011;1680;48.106;11.708;2023-03-14T08:20:35;0.70;;;0.70;;
1831;SDS011;1680;48.106;11.708;2023-03-14T08:23:02;2.50;;;0.80;;
1831;SDS011;1680;48.106;11.708;2023-03-14T08:25:29;0.77;;;0.67;;
1831;SDS011;1680;48.106;11.708;2023-03-14T08:27:57;0.70;;;0.70;;
1831;SDS011;1680;48.106;11.708;2023-03-14T08:30:25;0.73;;;0.53;;
1831;SDS011;1680;48.106;11.708;2023-03-14T08:32:53;1.17;;;0.63;;
1831;SDS011;1680;48.106;11.708;2023-03-14T08:35:20;2.43;;;0.67;;
1831;SDS011;1680;48.106;11.708;2023-03-14T08:37:47;1.53;;;0.60;;
1831;SDS011;1680;48.106;11.708;2023-03-14T08:40:14;0.70;;;0.60;;
1831;SDS011;1680;48.106;11.708;2023-03-14T08:42:42;0.87;;;0.70;;
1831;SDS011;1680;48.106;11.708;2023-03-14T08:45:10;0.70;;;0.70;;
1831;SDS011;1680;48.106;11.708;2023-03-14T08:47:40;0.80;;;0.70;;
1831;SDS011;1680;48.106;11.708;2023-03-14T08:50:07;1.13;;;0.70;;
1831;SDS011;1680;48.106;11.708;2023-03-14T08:52:35;0.87;;;0.70;;
1831;SDS011;1680;48.106;11.708;2023-03-14T08:55:05;1.23;;;1.07;;
1831;SDS011;1680;48.106;11.708;2023-03-14T08:57:33;1.50;;;1.40;;
1831;SDS011;1680;48.106;11.708;2023-03-14T09:00:02;1.20;;;1.20;;
1831;SDS011;1680;48.106;11.708;2023-03-14T09:02:34;1.37;;;1.10;;
1831;SDS011;1680;48.106;11.708;2023-03-14T09:05:02;0.60;;;0.60;;
1831;SDS011;1680;48.106;11.708;2023-03-14T09:07:30;0.67;;;0.67;;
1831;SDS011;1680;48.106;11.708;2023-03-14T09:09:57;0.70;;;0.70;;
1831;SDS011;1680;48.106;11.708;2023-03-14T09:12:24;0.90;;;0.70;;
1831;SDS011;1680;48.106;11.708;2023-03-14T09:14:52;0.80;;;0.80;;
1831;SDS011;1680;48.106;11.708;2023-03-14T09:17:19;1.10;;;0.70;;
1831;SDS011;1680;48.106;11.708;2023-03-14T09:19:46;0.50;;;0.50;;
1831;SDS011;1680;48.106;11.708;2023-03-14T09:22:15;1.20;;;0.70;;
1831;SDS011;1680;48.106;11.708;2023-03-14T09:24:42;1.13;;;0.90;;
1831;SDS011;1680;48.106;11.708;2023-03-14T09:27:09;1.17;;;0.70;;
1831;SDS011;1680;48.106;11.708;2023-03-14T09:29:36;0.80;;;0.70;;
1831;SDS011;1680;48.106;11.708;2023-03-14T09:32:03;0.80;;;0.70;;
1831;SDS011;1680;48.106;11.708;2023-03-14T09:34:31;0.80;;;0.70;;
1831;SDS011;1680;48.106;11.708;2023-03-14T09:36:58;0.87;;;0.80;;
1831;SDS011;1680;48.106;11.708;2023-03-14T09:39:27;1.03;;;1.03;;
1831;SDS011;1680;48.106;11.708;2023-03-14T09:41:55;0.80;;;0.80;;
1831;SDS011;1680;48.106;11.708;2023-03-14T09:44:26;0.80;;;0.80;;
1831;SDS011;1680;48.106;11.708;2023-03-14T09:46:57;0.80;;;0.70;;
1831;SDS011;1680;48.106;11.708;2023-03-14T09:49:28;3.60;;;1.23;;
1831;SDS011;1680;48.106;11.708;2023-03-14T09:51:58;2.03;;;0.70;;
1831;SDS011;1680;48.106;11.708;2023-03-14T09:54:34;1.40;;;0.90;;
1831;SDS011;1680;48.106;11.708;2023-03-14T09:57:03;0.80;;;0.80;;
1831;SDS011;1680;48.106;11.708;2023-03-14T09:59:32;0.90;;;0.80;;
1831;SDS011;1680;48.106;11.708;2023-03-14T10:02:11;0.80;;;0.80;;
1831;SDS011;1680;48.106;11.708;2023-03-14T10:04:42;2.60;;;1.00;;
1831;SDS011;1680;48.106;11.708;2023-03-14T10:07:14;0.80;;;0.80;;
1831;SDS011;1680;48.106;11.708;2023-03-14T10:09:47;1.10;;;0.70;;
1831;SDS011;1680;48.106;11.708;2023-03-14T10:12:16;1.43;;;0.50;;
1831;SDS011;1680;48.106;11.708;2023-03-14T10:14:45;0.90;;;0.90;;
1831;SDS011;1680;48.106;11.708;2023-03-14T10:17:15;1.07;;;0.97;;
1831;SDS011;1680;48.106;11.708;2023-03-14T10:19:50;1.27;;;0.87;;
1831;SDS011;1680;48.106;11.708;2023-03-14T10:22:20;0.83;;;0.77;;
1831;SDS011;1680;48.106;11.708;2023-03-14T10:24:52;0.80;;;0.80;;
1831;SDS011;1680;48.106;11.708;2023-03-14T10:27:22;1.00;;;0.90;;
1831;SDS011;1680;48.106;11.708;2023-03-14T10:29:55;1.07;;;1.07;;
1831;SDS011;1680;48.106;11.708;2023-03-14T10:32:27;1.80;;;1.00;;
1831;SDS011;1680;48.106;11.708;2023-03-14T10:35:11;1.50;;;0.87;;
1831;SDS011;1680;48.106;11.708;2023-03-14T10:37:53;1.17;;;0.70;;
1831;SDS011;1680;48.106;11.708;2023-03-14T10:40:26;3.43;;;1.10;;
1831;SDS011;1680;48.106;11.708;2023-03-14T10:42:55;1.30;;;1.20;;
1831;SDS011;1680;48.106;11.708;2023-03-14T10:45:31;1.50;;;1.40;;
1831;SDS011;1680;48.106;11.708;2023-03-14T10:48:05;2.00;;;1.40;;
1831;SDS011;1680;48.106;11.708;2023-03-14T10:50:49;2.20;;;1.30;;
1831;SDS011;1680;48.106;11.708;2023-03-14T10:53:21;1.47;;;1.07;;
1831;SDS011;1680;48.106;11.708;2023-03-14T10:55:50;1.43;;;1.03;;
1831;SDS011;1680;48.106;11.708;2023-03-14T10:58:22;1.20;;;1.10;;
1831;SDS011;1680;48.106;11.708;2023-03-14T11:00:53;1.20;;;1.10;;
1831;SDS011;1680;48.106;11.708;2023-03-14T11:03:29;1.50;;;1.40;;
1831;SDS011;1680;48.106;11.708;2023-03-14T11:06:03;1.73;;;1.10;;
1831;SDS011;1680;48.106;11.708;2023-03-14T11:08:42;1.40;;;1.10;;
1831;SDS011;1680;48.106;11.708;2023-03-14T11:11:18;1.10;;;1.00;;
1831;SDS011;1680;48.106;11.708;2023-03-14T11:13:51;1.57;;;1.17;;
1831;SDS011;1680;48.106;11.708;2023-03-14T11:16:26;0.90;;;0.90;;
1831;SDS011;1680;48.106;11.708;2023-03-14T11:19:08;1.40;;;1.30;;
1831;SDS011;1680;48.106;11.708;2023-03-14T11:21:47;1.43;;;0.70;;
1831;SDS011;1680;48.106;11.708;2023-03-14T11:24:25;1.30;;;1.00;;
1831;SDS011;1680;48.106;11.708;2023-03-14T11:27:16;5.20;;;1.10;;
1831;SDS011;1680;48.106;11.708;2023-03-14T11:29:48;2.90;;;1.33;;
1831;SDS011;1680;48.106;11.708;2023-03-14T11:32:23;6.37;;;1.50;;
1831;SDS011;1680;48.106;11.708;2023-03-14T11:34:58;2.13;;;1.70;;
1831;SDS011;1680;48.106;11.708;2023-03-14T11:37:32;3.20;;;2.00;;
1831;SDS011;1680;48.106;11.708;2023-03-14T11:40:04;2.10;;;1.57;;
1831;SDS011;1680;48.106;11.708;2023-03-14T11:42:37;1.47;;;1.20;;
1831;SDS011;1680;48.106;11.708;2023-03-14T11:45:11;1.20;;;1.10;;
1831;SDS011;1680;48.106;11.708;2023-03-14T11:47:43;2.30;;;1.23;;
1831;SDS011;1680;48.106;11.708;2023-03-14T11:50:15;1.03;;;0.80;;
1831;SDS011;1680;48.106;11.708;2023-03-14T11:52:46;0.80;;;0.80;;
1831;SDS011;1680;48.106;11.708;2023-03-14T11:55:18;2.90;;;1.10;;
1831;SDS011;1680;48.106;11.708;2023-03-14T11:57:53;1.10;;;1.00;;
1831;SDS011;1680;48.106;11.708;2023-03-14T12:00:23;0.70;;;0.70;;
1831;SDS011;1680;48.106;11.708;2023-03-14T12:02:53;0.87;;;0.70;;
1831;SDS011;1680;48.106;11.708;2023-03-14T12:05:31;1.33;;;0.70;;
1831;SDS011;1680;48.106;11.708;2023-03-14T12:08:16;0.70;;;0.70;;
1831;SDS011;1680;48.106;11.708;2023-03-14T12:10:52;0.90;;;0.73;;
1831;SDS011;1680;48.106;11.708;2023-03-14T12:13:24;0.90;;;0.70;;
1831;SDS011;1680;48.106;11.708;2023-03-14T12:15:56;1.13;;;0.80;;
1831;SDS011;1680;48.106;11.708;2023-03-14T12:18:26;1.73;;;1.20;;
1831;SDS011;1680;48.106;11.708;2023-03-14T12:20:55;1.13;;;0.60;;
1831;SDS011;1680;48.106;11.708;2023-03-14T12:23:25;1.27;;;0.60;;
1831;SDS011;1680;48.106;11.708;2023-03-14T12:26:08;1.00;;;0.70;;
1831;SDS011;1680;48.106;11.708;2023-03-14T12:28:43;0.90;;;0.70;;
1831;SDS011;1680;48.106;11.708;2023-03-14T12:34:25;0.67;;;0.57;;
1831;SDS011;1680;48.106;11.708;2023-03-14T12:36:56;1.13;;;1.03;;
1831;SDS011;1680;48.106;11.708;2023-03-14T12:39:37;0.80;;;0.80;;
1831;SDS011;1680;48.106;11.708;2023-03-14T12:42:12;0.70;;;0.70;;
1831;SDS011;1680;48.106;11.708;2023-03-14T12:44:45;0.50;;;0.50;;
1831;SDS011;1680;48.106;11.708;2023-03-14T12:53:52;1.00;;;0.60;;
1831;SDS011;1680;48.106;11.708;2023-03-14T12:56:44;0.60;;;0.60;;
1831;SDS011;1680;48.106;11.708;2023-03-14T12:59:27;0.80;;;0.50;;
1831;SDS011;1680;48.106;11.708;2023-03-14T13:02:00;0.93;;;0.70;;
1831;SDS011;1680;48.106;11.708;2023-03-14T13:04:43;0.80;;;0.70;;
1831;SDS011;1680;48.106;11.708;2023-03-14T13:07:12;0.50;;;0.50;;
1831;SDS011;1680;48.106;11.708;2023-03-14T13:09:55;0.60;;;0.60;;
1831;SDS011;1680;48.106;11.708;2023-03-14T13:12:31;0.60;;;0.50;;
1831;SDS011;1680;48.106;11.708;2023-03-14T13:15:15;1.07;;;0.53;;
1831;SDS011;1680;48.106;11.708;2023-03-14T13:17:47;0.90;;;0.90;;
1831;SDS011;1680;48.106;11.708;2023-03-14T13:20:18;0.60;;;0.50;;
1831;SDS011;1680;48.106;11.708;2023-03-14T13:22:49;0.50;;;0.40;;
1831;SDS011;1680;48.106;11.708;2023-03-14T13:25:17;0.57;;;0.57;;
1831;SDS011;1680;48.106;11.708;2023-03-14T13:27:47;0.67;;;0.57;;
1831;SDS011;1680;48.106;11.708;2023-03-14T13:30:16;0.60;;;0.60;;
1831;SDS011;1680;48.106;11.708;2023-03-14T13:32:48;1.33;;;0.50;;
1831;SDS011;1680;48.106;11.708;2023-03-14T13:35:18;0.60;;;0.50;;
1831;SDS011;1680;48.106;11.708;2023-03-14T13:37:46;0.60;;;0.60;;
1831;SDS011;1680;48.106;11.708;2023-03-14T13:40:19;0.60;;;0.60;;
1831;SDS011;1680;48.106;11.708;2023-03-14T13:42:58;0.60;;;0.60;;
1831;SDS011;1680;48.106;11.708;2023-03-14T13:45:28;0.60;;;0.60;;
1831;SDS011;1680;48.106;11.708;2023-03-14T13:47:57;0.50;;;0.50;;
1831;SDS011;1680;48.106;11.708;2023-03-14T13:50:24;0.60;;;0.60;;
1831;SDS011;1680;48.106;11.708;2023-03-14T13:52:55;0.60;;;0.60;;
1831;SDS011;1680;48.106;11.708;2023-03-14T13:55:23;0.50;;;0.50;;
1831;SDS011;1680;48.106;11.708;2023-03-14T13:57:51;1.13;;;0.50;;
1831;SDS011;1680;48.106;11.708;2023-03-14T14:00:21;0.60;;;0.60;;
1831;SDS011;1680;48.106;11.708;2023-03-14T14:02:52;0.70;;;0.60;;
1831;SDS011;1680;48.106;11.708;2023-03-14T14:05:22;0.70;;;0.50;;
1831;SDS011;1680;48.106;11.708;2023-03-14T14:07:50;0.70;;;0.70;;
1831;SDS011;1680;48.106;11.708;2023-03-14T14:10:18;1.67;;;0.50;;
1831;SDS011;1680;48.106;11.708;2023-03-14T14:12:47;0.40;;;0.40;;
1831;SDS011;1680;48.106;11.708;2023-03-14T14:15:18;3.80;;;0.60;;
1831;SDS011;1680;48.106;11.708;2023-03-14T14:17:49;0.73;;;0.60;;
1831;SDS011;1680;48.106;11.708;2023-03-14T14:20:24;0.60;;;0.60;;
1831;SDS011;1680;48.106;11.708;2023-03-14T14:22:57;0.60;;;0.50;;
1831;SDS011;1680;48.106;11.708;2023-03-14T14:25:25;0.50;;;0.50;;
1831;SDS011;1680;48.106;11.708;2023-03-14T14:27:53;0.70;;;0.50;;
1831;SDS011;1680;48.106;11.708;2023-03-14T14:30:28;0.60;;;0.60;;
1831;SDS011;1680;48.106;11.708;2023-03-14T14:35:53;0.57;;;0.57;;
1831;SDS011;1680;48.106;11.708;2023-03-14T14:38:21;0.97;;;0.60;;
1831;SDS011;1680;48.106;11.708;2023-03-14T14:40:49;0.50;;;0.50;;
1831;SDS011;1680;48.106;11.708;2023-03-14T14:43:22;1.10;;;0.50;;
1831;SDS011;1680;48.106;11.708;2023-03-14T14:45:51;2.40;;;0.63;;
1831;SDS011;1680;48.106;11.708;2023-03-14T14:48:21;0.80;;;0.60;;
1831;SDS011;1680;48.106;11.708;2023-03-14T14:50:54;0.50;;;0.50;;
1831;SDS011;1680;48.106;11.708;2023-03-14T14:53:25;0.87;;;0.50;;
1831;SDS011;1680;48.106;11.708;2023-03-14T14:55:56;0.40;;;0.40;;
1831;SDS011;1680;48.106;11.708;2023-03-14T14:58:26;1.90;;;0.57;;
1831;SDS011;1680;48.106;11.708;2023-03-14T15:00:56;0.50;;;0.50;;
1831;SDS011;1680;48.106;11.708;2023-03-14T15:03:26;0.63;;;0.60;;
1831;SDS011;1680;48.106;11.708;2023-03-14T15:05:56;0.67;;;0.67;;
1831;SDS011;1680;48.106;11.708;2023-03-14T15:08:24;0.60;;;0.50;;
1831;SDS011;1680;48.106;11.708;2023-03-14T15:10:53;0.57;;;0.57;;
1831;SDS011;1680;48.106;11.708;2023-03-14T15:13:21;1.23;;;0.60;;
1831;SDS011;1680;48.106;11.708;2023-03-14T15:15:49;0.70;;;0.60;;
1831;SDS011;1680;48.106;11.708;2023-03-14T15:18:21;0.50;;;0.50;;
1831;SDS011;1680;48.106;11.708;2023-03-14T15:20:50;0.50;;;0.50;;
1831;SDS011;1680;48.106;11.708;2023-03-14T15:23:19;0.70;;;0.70;;
1831;SDS011;1680;48.106;11.708;2023-03-14T15:25:49;0.50;;;0.50;;
1831;SDS011;1680;48.106;11.708;2023-03-14T15:28:16;0.70;;;0.50;;
1831;SDS011;1680;48.106;11.708;2023-03-14T15:30:46;0.60;;;0.60;;